Seven Sins — ZCOD6 — position and weather

sailwx.info

Track history (hours):
 
Tides and Currents Weather Stations Pressure Air Temp Water Temp Dewpoint Dewpoint Depression Visibility Wind Speed Wind Dir Waves Ship Positions

Seven Sins

Last reported at 2015-Aug-31 23:13 UTC. Time now 2015-Sep-01 16:11 UTC.
Position N 37°50' E 015°17'.

Length 43 m; draft 3.2 m.

Type: Pleasure craft. MMSI: 319425000.

Date/timePositionNaut miles runAvg speedWind from/ knotsBaromVisibWave heightAir tempDewpointWater temp
2015-Aug-31 23:13N 37°50' E 015°17'0 0.0
2015-Aug-31 22:24N 37°50' E 015°17'0 0.0
2015-Aug-31 15:33N 37°50' E 015°17'0 0.0
2015-Aug-31 12:23N 37°50' E 015°17'7 3.4
2015-Aug-31 10:20N 37°50' E 015°26'911.1
2015-Aug-31 09:33N 37°49' E 015°37'1612.0
2015-Aug-31 08:14N 37°48' E 015°57'  
2015-Aug-26 14:11N 37°52' E 023°22'711.1
2015-Aug-26 13:33N 37°52' E 023°31'1010.4
2015-Aug-26 12:33N 37°48' E 023°43'3 3.0
2015-Aug-26 11:33N 37°48' E 023°47'0 0.0
2015-Aug-26 10:33N 37°48' E 023°47'0 0.0
2015-Aug-26 09:33N 37°48' E 023°47'0 0.0
2015-Aug-26 08:33N 37°48' E 023°47'0 0.0
2015-Aug-26 07:33N 37°48' E 023°47'0 0.0
2015-Aug-26 06:33N 37°48' E 023°47'0 0.0
2015-Aug-26 05:33N 37°48' E 023°47'0 0.0
2015-Aug-26 04:32N 37°48' E 023°47'0 0.0
2015-Aug-26 03:32N 37°48' E 023°47'0 0.0
2015-Aug-26 02:33N 37°48' E 023°47'0 0.0
2015-Aug-26 01:33N 37°48' E 023°47'0 0.0
2015-Aug-26 00:33N 37°48' E 023°47'0 0.0
2015-Aug-25 23:33N 37°48' E 023°47'0 0.0
2015-Aug-25 22:33N 37°48' E 023°47'0 0.0
2015-Aug-25 21:32N 37°48' E 023°47'0 0.0
2015-Aug-25 20:33N 37°48' E 023°47'0 0.0
2015-Aug-25 19:33N 37°48' E 023°47'0 0.0
2015-Aug-25 18:33N 37°48' E 023°47'0 0.0
2015-Aug-25 17:33N 37°48' E 023°47'0 0.0
2015-Aug-25 16:33N 37°48' E 023°47'0 0.0
2015-Aug-25 15:33N 37°48' E 023°47'107 9.4
2015-Aug-25 04:12N 36°37' E 025°27'710.6
2015-Aug-25 03:32N 36°35' E 025°35'1010.3
2015-Aug-25 02:34N 36°34' E 025°48'  
Track history (hours):
 
Tides and Currents Weather Stations Pressure Air Temp Water Temp Dewpoint Dewpoint Depression Visibility Wind Speed Wind Dir Waves Ship Positions

Seven Sins

Last reported at 2015-Aug-31 23:13 UTC. Time now 2015-Sep-01 16:11 UTC.
Position N 37°50' E 015°17'.

Length 43 m; draft 3.2 m.

Type: Pleasure craft. MMSI: 319425000.

Date/timePositionNaut miles runAvg speedWind from/ knotsBaromVisibWave heightAir tempDewpointWater temp
2015-Aug-31 23:13N 37°50' E 015°17'0 0.0
2015-Aug-31 22:24N 37°50' E 015°17'0 0.0
2015-Aug-31 15:33N 37°50' E 015°17'0 0.0
2015-Aug-31 12:23N 37°50' E 015°17'7 3.4
2015-Aug-31 10:20N 37°50' E 015°26'911.1
2015-Aug-31 09:33N 37°49' E 015°37'1612.0
2015-Aug-31 08:14N 37°48' E 015°57'  
2015-Aug-26 14:11N 37°52' E 023°22'711.1
2015-Aug-26 13:33N 37°52' E 023°31'1010.4
2015-Aug-26 12:33N 37°48' E 023°43'3 3.0
2015-Aug-26 11:33N 37°48' E 023°47'0 0.0
2015-Aug-26 10:33N 37°48' E 023°47'0 0.0
2015-Aug-26 09:33N 37°48' E 023°47'0 0.0
2015-Aug-26 08:33N 37°48' E 023°47'0 0.0
2015-Aug-26 07:33N 37°48' E 023°47'0 0.0
2015-Aug-26 06:33N 37°48' E 023°47'0 0.0
2015-Aug-26 05:33N 37°48' E 023°47'0 0.0
2015-Aug-26 04:32N 37°48' E 023°47'0 0.0
2015-Aug-26 03:32N 37°48' E 023°47'0 0.0
2015-Aug-26 02:33N 37°48' E 023°47'0 0.0
2015-Aug-26 01:33N 37°48' E 023°47'0 0.0
2015-Aug-26 00:33N 37°48' E 023°47'0 0.0
2015-Aug-25 23:33N 37°48' E 023°47'0 0.0
2015-Aug-25 22:33N 37°48' E 023°47'0 0.0
2015-Aug-25 21:32N 37°48' E 023°47'0 0.0
2015-Aug-25 20:33N 37°48' E 023°47'0 0.0
2015-Aug-25 19:33N 37°48' E 023°47'0 0.0
2015-Aug-25 18:33N 37°48' E 023°47'0 0.0
2015-Aug-25 17:33N 37°48' E 023°47'0 0.0
2015-Aug-25 16:33N 37°48' E 023°47'0 0.0
2015-Aug-25 15:33N 37°48' E 023°47'107 9.4
2015-Aug-25 04:12N 36°37' E 025°27'710.6
2015-Aug-25 03:32N 36°35' E 025°35'1010.3
2015-Aug-25 02:34N 36°34' E 025°48'  

Dump ship's entire track history